sensor_id;sensor_type;location;lat;lon;timestamp;P1;durP1;ratioP1;P2;durP2;ratioP2
11283;SDS011;5698;47.332;11.180;2023-07-22T00:02:20;4.10;;;2.70;;
11283;SDS011;5698;47.332;11.180;2023-07-22T00:04:47;5.13;;;3.13;;
11283;SDS011;5698;47.332;11.180;2023-07-22T00:07:15;28.60;;;3.73;;
11283;SDS011;5698;47.332;11.180;2023-07-22T00:09:42;3.67;;;2.77;;
11283;SDS011;5698;47.332;11.180;2023-07-22T00:12:10;2.50;;;2.30;;
11283;SDS011;5698;47.332;11.180;2023-07-22T00:14:40;2.57;;;2.17;;
11283;SDS011;5698;47.332;11.180;2023-07-22T00:17:07;3.60;;;2.63;;
11283;SDS011;5698;47.332;11.180;2023-07-22T00:19:35;3.13;;;2.43;;
11283;SDS011;5698;47.332;11.180;2023-07-22T00:22:02;3.30;;;2.87;;
11283;SDS011;5698;47.332;11.180;2023-07-22T00:24:29;2.60;;;2.40;;
11283;SDS011;5698;47.332;11.180;2023-07-22T00:26:56;2.83;;;2.30;;
11283;SDS011;5698;47.332;11.180;2023-07-22T00:29:23;3.70;;;2.20;;
11283;SDS011;5698;47.332;11.180;2023-07-22T00:31:52;3.03;;;2.60;;
11283;SDS011;5698;47.332;11.180;2023-07-22T00:34:19;2.40;;;2.20;;
11283;SDS011;5698;47.332;11.180;2023-07-22T00:36:47;3.57;;;2.33;;
11283;SDS011;5698;47.332;11.180;2023-07-22T00:39:13;3.43;;;2.40;;
11283;SDS011;5698;47.332;11.180;2023-07-22T00:41:40;2.60;;;2.40;;
11283;SDS011;5698;47.332;11.180;2023-07-22T00:44:09;3.47;;;2.63;;
11283;SDS011;5698;47.332;11.180;2023-07-22T00:46:37;3.10;;;2.80;;
11283;SDS011;5698;47.332;11.180;2023-07-22T00:49:06;2.60;;;2.40;;
11283;SDS011;5698;47.332;11.180;2023-07-22T00:51:34;2.57;;;2.20;;
11283;SDS011;5698;47.332;11.180;2023-07-22T00:54:01;3.13;;;2.83;;
11283;SDS011;5698;47.332;11.180;2023-07-22T00:56:29;4.10;;;2.70;;
11283;SDS011;5698;47.332;11.180;2023-07-22T00:58:59;3.10;;;2.80;;
11283;SDS011;5698;47.332;11.180;2023-07-22T01:01:26;3.00;;;2.47;;
11283;SDS011;5698;47.332;11.180;2023-07-22T01:03:53;2.67;;;2.47;;
11283;SDS011;5698;47.332;11.180;2023-07-22T01:06:22;2.97;;;2.67;;
11283;SDS011;5698;47.332;11.180;2023-07-22T01:08:51;2.90;;;2.60;;
11283;SDS011;5698;47.332;11.180;2023-07-22T01:11:18;4.10;;;2.50;;
11283;SDS011;5698;47.332;11.180;2023-07-22T01:13:45;2.83;;;2.60;;
11283;SDS011;5698;47.332;11.180;2023-07-22T01:16:14;3.17;;;2.77;;
11283;SDS011;5698;47.332;11.180;2023-07-22T01:18:41;2.70;;;2.40;;
11283;SDS011;5698;47.332;11.180;2023-07-22T01:21:08;3.10;;;2.80;;
11283;SDS011;5698;47.332;11.180;2023-07-22T01:23:39;2.47;;;2.27;;
11283;SDS011;5698;47.332;11.180;2023-07-22T01:26:06;2.80;;;2.60;;
11283;SDS011;5698;47.332;11.180;2023-07-22T01:28:34;2.47;;;2.27;;
11283;SDS011;5698;47.332;11.180;2023-07-22T01:31:02;2.60;;;2.40;;
11283;SDS011;5698;47.332;11.180;2023-07-22T01:33:30;2.80;;;2.37;;
11283;SDS011;5698;47.332;11.180;2023-07-22T01:35:57;4.40;;;2.47;;
11283;SDS011;5698;47.332;11.180;2023-07-22T01:38:24;2.80;;;2.33;;
11283;SDS011;5698;47.332;11.180;2023-07-22T01:40:52;2.83;;;2.37;;
11283;SDS011;5698;47.332;11.180;2023-07-22T01:43:19;4.50;;;2.97;;
11283;SDS011;5698;47.332;11.180;2023-07-22T01:45:46;4.53;;;2.53;;
11283;SDS011;5698;47.332;11.180;2023-07-22T01:48:13;3.07;;;2.17;;
11283;SDS011;5698;47.332;11.180;2023-07-22T01:50:41;2.60;;;2.40;;
11283;SDS011;5698;47.332;11.180;2023-07-22T01:53:08;3.33;;;2.30;;
11283;SDS011;5698;47.332;11.180;2023-07-22T01:55:35;4.30;;;2.60;;
11283;SDS011;5698;47.332;11.180;2023-07-22T01:58:03;3.40;;;2.60;;
11283;SDS011;5698;47.332;11.180;2023-07-22T02:00:30;3.07;;;2.60;;
11283;SDS011;5698;47.332;11.180;2023-07-22T02:02:57;3.00;;;2.67;;
11283;SDS011;5698;47.332;11.180;2023-07-22T02:05:24;3.87;;;2.70;;
11283;SDS011;5698;47.332;11.180;2023-07-22T02:07:53;3.80;;;2.80;;
11283;SDS011;5698;47.332;11.180;2023-07-22T02:10:20;4.10;;;2.70;;
11283;SDS011;5698;47.332;11.180;2023-07-22T02:12:47;2.87;;;2.63;;
11283;SDS011;5698;47.332;11.180;2023-07-22T02:15:16;2.50;;;2.23;;
11283;SDS011;5698;47.332;11.180;2023-07-22T02:17:43;2.97;;;2.67;;
11283;SDS011;5698;47.332;11.180;2023-07-22T02:20:10;2.57;;;2.37;;
11283;SDS011;5698;47.332;11.180;2023-07-22T02:22:37;3.60;;;2.70;;
11283;SDS011;5698;47.332;11.180;2023-07-22T02:25:05;2.57;;;2.33;;
11283;SDS011;5698;47.332;11.180;2023-07-22T02:27:35;3.07;;;2.63;;
11283;SDS011;5698;47.332;11.180;2023-07-22T02:30:04;2.33;;;2.13;;
11283;SDS011;5698;47.332;11.180;2023-07-22T02:32:36;2.37;;;2.03;;
11283;SDS011;5698;47.332;11.180;2023-07-22T02:35:04;2.67;;;2.47;;
11283;SDS011;5698;47.332;11.180;2023-07-22T02:37:32;3.03;;;2.73;;
11283;SDS011;5698;47.332;11.180;2023-07-22T02:40:00;2.87;;;2.67;;
11283;SDS011;5698;47.332;11.180;2023-07-22T02:42:33;2.73;;;2.53;;
11283;SDS011;5698;47.332;11.180;2023-07-22T02:45:00;2.97;;;2.67;;
11283;SDS011;5698;47.332;11.180;2023-07-22T02:47:28;3.97;;;3.10;;
11283;SDS011;5698;47.332;11.180;2023-07-22T02:49:56;2.80;;;2.60;;
11283;SDS011;5698;47.332;11.180;2023-07-22T02:52:24;1.70;;;1.60;;
11283;SDS011;5698;47.332;11.180;2023-07-22T02:55:04;1.77;;;1.67;;
11283;SDS011;5698;47.332;11.180;2023-07-22T02:57:33;1.80;;;1.37;;
11283;SDS011;5698;47.332;11.180;2023-07-22T03:00:00;2.00;;;1.80;;
11283;SDS011;5698;47.332;11.180;2023-07-22T03:02:32;1.93;;;1.73;;
11283;SDS011;5698;47.332;11.180;2023-07-22T03:05:01;2.40;;;2.20;;
11283;SDS011;5698;47.332;11.180;2023-07-22T03:07:31;2.77;;;2.57;;
11283;SDS011;5698;47.332;11.180;2023-07-22T03:09:58;2.30;;;2.10;;
11283;SDS011;5698;47.332;11.180;2023-07-22T03:12:25;2.40;;;2.20;;
11283;SDS011;5698;47.332;11.180;2023-07-22T03:14:52;2.20;;;2.00;;
11283;SDS011;5698;47.332;11.180;2023-07-22T03:17:19;2.40;;;2.20;;
11283;SDS011;5698;47.332;11.180;2023-07-22T03:19:46;2.20;;;2.00;;
11283;SDS011;5698;47.332;11.180;2023-07-22T03:22:15;2.70;;;2.50;;
11283;SDS011;5698;47.332;11.180;2023-07-22T03:24:42;2.50;;;2.30;;
11283;SDS011;5698;47.332;11.180;2023-07-22T03:27:09;3.87;;;2.80;;
11283;SDS011;5698;47.332;11.180;2023-07-22T03:29:36;2.50;;;2.30;;
11283;SDS011;5698;47.332;11.180;2023-07-22T03:32:04;3.03;;;2.60;;
11283;SDS011;5698;47.332;11.180;2023-07-22T03:34:31;4.03;;;2.70;;
11283;SDS011;5698;47.332;11.180;2023-07-22T03:36:58;2.33;;;2.10;;
11283;SDS011;5698;47.332;11.180;2023-07-22T03:39:27;3.93;;;2.57;;
11283;SDS011;5698;47.332;11.180;2023-07-22T03:41:54;3.97;;;2.20;;
11283;SDS011;5698;47.332;11.180;2023-07-22T03:44:21;2.83;;;2.53;;
11283;SDS011;5698;47.332;11.180;2023-07-22T03:46:48;3.30;;;2.80;;
11283;SDS011;5698;47.332;11.180;2023-07-22T03:49:15;3.00;;;2.80;;
11283;SDS011;5698;47.332;11.180;2023-07-22T03:51:42;3.10;;;2.80;;
11283;SDS011;5698;47.332;11.180;2023-07-22T03:54:09;2.50;;;2.30;;
11283;SDS011;5698;47.332;11.180;2023-07-22T03:56:39;2.50;;;2.30;;
11283;SDS011;5698;47.332;11.180;2023-07-22T03:59:07;4.47;;;2.60;;
11283;SDS011;5698;47.332;11.180;2023-07-22T04:01:34;3.07;;;2.27;;
11283;SDS011;5698;47.332;11.180;2023-07-22T04:04:01;3.57;;;2.60;;
11283;SDS011;5698;47.332;11.180;2023-07-22T04:06:28;3.10;;;2.40;;
11283;SDS011;5698;47.332;11.180;2023-07-22T04:08:55;5.17;;;2.90;;
11283;SDS011;5698;47.332;11.180;2023-07-22T04:11:22;2.60;;;2.40;;
11283;SDS011;5698;47.332;11.180;2023-07-22T04:13:50;3.23;;;2.93;;
11283;SDS011;5698;47.332;11.180;2023-07-22T04:16:17;2.70;;;2.50;;
11283;SDS011;5698;47.332;11.180;2023-07-22T04:18:44;3.00;;;2.70;;
11283;SDS011;5698;47.332;11.180;2023-07-22T04:21:11;3.37;;;2.80;;
11283;SDS011;5698;47.332;11.180;2023-07-22T04:23:38;3.20;;;2.60;;
11283;SDS011;5698;47.332;11.180;2023-07-22T04:26:05;2.67;;;2.47;;
11283;SDS011;5698;47.332;11.180;2023-07-22T04:28:32;2.30;;;2.10;;
11283;SDS011;5698;47.332;11.180;2023-07-22T04:31:01;2.50;;;2.30;;
11283;SDS011;5698;47.332;11.180;2023-07-22T04:33:29;2.70;;;2.30;;
11283;SDS011;5698;47.332;11.180;2023-07-22T04:35:57;2.93;;;2.63;;
11283;SDS011;5698;47.332;11.180;2023-07-22T04:38:26;3.13;;;2.40;;
11283;SDS011;5698;47.332;11.180;2023-07-22T04:40:53;3.73;;;2.73;;
11283;SDS011;5698;47.332;11.180;2023-07-22T04:43:20;2.50;;;2.30;;
11283;SDS011;5698;47.332;11.180;2023-07-22T04:45:47;3.00;;;2.70;;
11283;SDS011;5698;47.332;11.180;2023-07-22T04:48:16;3.63;;;2.90;;
11283;SDS011;5698;47.332;11.180;2023-07-22T04:50:48;3.00;;;2.70;;
11283;SDS011;5698;47.332;11.180;2023-07-22T04:53:15;2.27;;;2.07;;
11283;SDS011;5698;47.332;11.180;2023-07-22T04:55:43;3.40;;;2.73;;
11283;SDS011;5698;47.332;11.180;2023-07-22T04:58:10;3.50;;;3.20;;
11283;SDS011;5698;47.332;11.180;2023-07-22T05:00:37;3.10;;;2.80;;
11283;SDS011;5698;47.332;11.180;2023-07-22T05:03:04;2.80;;;2.60;;
11283;SDS011;5698;47.332;11.180;2023-07-22T05:05:33;2.87;;;2.50;;
11283;SDS011;5698;47.332;11.180;2023-07-22T05:08:01;2.90;;;2.60;;
11283;SDS011;5698;47.332;11.180;2023-07-22T05:10:29;3.60;;;2.90;;
11283;SDS011;5698;47.332;11.180;2023-07-22T05:12:56;3.03;;;2.57;;
11283;SDS011;5698;47.332;11.180;2023-07-22T05:15:23;3.00;;;2.70;;
11283;SDS011;5698;47.332;11.180;2023-07-22T05:17:50;3.63;;;3.00;;
11283;SDS011;5698;47.332;11.180;2023-07-22T05:20:17;2.80;;;2.47;;
11283;SDS011;5698;47.332;11.180;2023-07-22T05:22:46;3.27;;;2.90;;
11283;SDS011;5698;47.332;11.180;2023-07-22T05:25:13;4.27;;;3.37;;
11283;SDS011;5698;47.332;11.180;2023-07-22T05:27:40;3.13;;;2.83;;
11283;SDS011;5698;47.332;11.180;2023-07-22T05:30:07;3.10;;;2.80;;
11283;SDS011;5698;47.332;11.180;2023-07-22T05:32:35;3.77;;;3.10;;
11283;SDS011;5698;47.332;11.180;2023-07-22T05:35:02;3.30;;;2.80;;
11283;SDS011;5698;47.332;11.180;2023-07-22T05:37:30;3.57;;;2.87;;
11283;SDS011;5698;47.332;11.180;2023-07-22T05:39:59;5.33;;;3.97;;
11283;SDS011;5698;47.332;11.180;2023-07-22T05:42:26;4.93;;;3.63;;
11283;SDS011;5698;47.332;11.180;2023-07-22T05:44:54;4.17;;;2.97;;
11283;SDS011;5698;47.332;11.180;2023-07-22T05:47:21;3.90;;;3.50;;
11283;SDS011;5698;47.332;11.180;2023-07-22T05:49:48;3.50;;;3.20;;
11283;SDS011;5698;47.332;11.180;2023-07-22T05:52:15;3.83;;;3.43;;
11283;SDS011;5698;47.332;11.180;2023-07-22T05:54:43;3.67;;;3.37;;
11283;SDS011;5698;47.332;11.180;2023-07-22T05:57:11;4.30;;;3.00;;
11283;SDS011;5698;47.332;11.180;2023-07-22T05:59:38;3.73;;;3.33;;
11283;SDS011;5698;47.332;11.180;2023-07-22T06:02:05;4.20;;;3.33;;
11283;SDS011;5698;47.332;11.180;2023-07-22T06:04:34;4.30;;;3.20;;
11283;SDS011;5698;47.332;11.180;2023-07-22T06:07:01;5.00;;;3.40;;
11283;SDS011;5698;47.332;11.180;2023-07-22T06:09:28;4.37;;;3.97;;
11283;SDS011;5698;47.332;11.180;2023-07-22T06:11:55;5.27;;;3.77;;
11283;SDS011;5698;47.332;11.180;2023-07-22T06:14:23;5.37;;;3.50;;
11283;SDS011;5698;47.332;11.180;2023-07-22T06:16:50;3.50;;;3.20;;
11283;SDS011;5698;47.332;11.180;2023-07-22T06:19:17;3.47;;;3.17;;
11283;SDS011;5698;47.332;11.180;2023-07-22T06:21:44;3.50;;;3.17;;
11283;SDS011;5698;47.332;11.180;2023-07-22T06:24:11;4.20;;;3.80;;
11283;SDS011;5698;47.332;11.180;2023-07-22T06:26:38;3.97;;;3.10;;
11283;SDS011;5698;47.332;11.180;2023-07-22T06:29:05;3.90;;;2.93;;
11283;SDS011;5698;47.332;11.180;2023-07-22T06:31:33;5.77;;;3.23;;
11283;SDS011;5698;47.332;11.180;2023-07-22T06:34:00;4.07;;;3.63;;
11283;SDS011;5698;47.332;11.180;2023-07-22T06:36:28;3.47;;;3.00;;
11283;SDS011;5698;47.332;11.180;2023-07-22T06:38:55;3.27;;;2.97;;
11283;SDS011;5698;47.332;11.180;2023-07-22T06:41:22;3.43;;;3.13;;
11283;SDS011;5698;47.332;11.180;2023-07-22T06:43:50;3.10;;;2.80;;
11283;SDS011;5698;47.332;11.180;2023-07-22T06:46:17;3.90;;;3.13;;
11283;SDS011;5698;47.332;11.180;2023-07-22T06:48:45;3.53;;;3.23;;
11283;SDS011;5698;47.332;11.180;2023-07-22T06:51:13;3.77;;;3.30;;
11283;SDS011;5698;47.332;11.180;2023-07-22T06:53:40;3.60;;;3.30;;
11283;SDS011;5698;47.332;11.180;2023-07-22T06:56:07;4.97;;;3.30;;
11283;SDS011;5698;47.332;11.180;2023-07-22T06:58:34;2.70;;;2.50;;
11283;SDS011;5698;47.332;11.180;2023-07-22T07:01:01;3.13;;;2.83;;
11283;SDS011;5698;47.332;11.180;2023-07-22T07:03:28;3.27;;;2.97;;
11283;SDS011;5698;47.332;11.180;2023-07-22T07:05:56;3.43;;;3.13;;
11283;SDS011;5698;47.332;11.180;2023-07-22T07:08:24;3.20;;;2.90;;
11283;SDS011;5698;47.332;11.180;2023-07-22T07:10:51;4.63;;;3.10;;
11283;SDS011;5698;47.332;11.180;2023-07-22T07:13:18;3.37;;;3.07;;
11283;SDS011;5698;47.332;11.180;2023-07-22T07:15:46;3.77;;;2.90;;
11283;SDS011;5698;47.332;11.180;2023-07-22T07:18:15;3.20;;;2.90;;
11283;SDS011;5698;47.332;11.180;2023-07-22T07:20:42;3.57;;;2.73;;
11283;SDS011;5698;47.332;11.180;2023-07-22T07:23:12;2.97;;;2.60;;
11283;SDS011;5698;47.332;11.180;2023-07-22T07:25:41;3.53;;;2.87;;
11283;SDS011;5698;47.332;11.180;2023-07-22T07:28:08;2.60;;;2.40;;
11283;SDS011;5698;47.332;11.180;2023-07-22T07:30:36;3.87;;;2.50;;
11283;SDS011;5698;47.332;11.180;2023-07-22T07:33:03;2.80;;;2.00;;
11283;SDS011;5698;47.332;11.180;2023-07-22T07:35:30;2.90;;;2.60;;
11283;SDS011;5698;47.332;11.180;2023-07-22T07:37:57;3.50;;;2.50;;
11283;SDS011;5698;47.332;11.180;2023-07-22T07:40:25;3.37;;;2.57;;
11283;SDS011;5698;47.332;11.180;2023-07-22T07:42:52;3.20;;;2.57;;
11283;SDS011;5698;47.332;11.180;2023-07-22T07:45:20;3.97;;;2.53;;
11283;SDS011;5698;47.332;11.180;2023-07-22T07:47:47;2.97;;;2.63;;
11283;SDS011;5698;47.332;11.180;2023-07-22T07:50:15;2.47;;;2.27;;
11283;SDS011;5698;47.332;11.180;2023-07-22T07:52:41;4.37;;;2.60;;
11283;SDS011;5698;47.332;11.180;2023-07-22T07:55:08;4.30;;;2.87;;
11283;SDS011;5698;47.332;11.180;2023-07-22T07:57:37;3.13;;;2.70;;
11283;SDS011;5698;47.332;11.180;2023-07-22T08:00:04;2.47;;;2.20;;
11283;SDS011;5698;47.332;11.180;2023-07-22T08:02:34;3.47;;;3.17;;
11283;SDS011;5698;47.332;11.180;2023-07-22T08:05:01;2.50;;;2.30;;
11283;SDS011;5698;47.332;11.180;2023-07-22T08:07:28;2.47;;;2.27;;
11283;SDS011;5698;47.332;11.180;2023-07-22T08:09:56;5.20;;;2.80;;
11283;SDS011;5698;47.332;11.180;2023-07-22T08:12:24;3.07;;;2.77;;
11283;SDS011;5698;47.332;11.180;2023-07-22T08:14:53;5.80;;;5.20;;
11283;SDS011;5698;47.332;11.180;2023-07-22T08:17:20;3.60;;;3.30;;
11283;SDS011;5698;47.332;11.180;2023-07-22T08:19:47;2.60;;;2.37;;
11283;SDS011;5698;47.332;11.180;2023-07-22T08:22:14;3.47;;;2.60;;
11283;SDS011;5698;47.332;11.180;2023-07-22T08:24:41;3.10;;;2.27;;
11283;SDS011;5698;47.332;11.180;2023-07-22T08:27:08;3.17;;;2.67;;
11283;SDS011;5698;47.332;11.180;2023-07-22T08:29:35;2.53;;;2.33;;
11283;SDS011;5698;47.332;11.180;2023-07-22T08:32:04;5.07;;;2.50;;
11283;SDS011;5698;47.332;11.180;2023-07-22T08:34:31;2.87;;;2.50;;
11283;SDS011;5698;47.332;11.180;2023-07-22T08:36:58;2.60;;;2.40;;
11283;SDS011;5698;47.332;11.180;2023-07-22T08:39:25;4.37;;;2.57;;
11283;SDS011;5698;47.332;11.180;2023-07-22T08:41:52;3.07;;;2.60;;
11283;SDS011;5698;47.332;11.180;2023-07-22T08:44:22;2.80;;;2.23;;
11283;SDS011;5698;47.332;11.180;2023-07-22T08:46:59;3.83;;;2.47;;
11283;SDS011;5698;47.332;11.180;2023-07-22T08:49:30;3.67;;;2.40;;
11283;SDS011;5698;47.332;11.180;2023-07-22T08:51:58;3.17;;;2.47;;
11283;SDS011;5698;47.332;11.180;2023-07-22T08:54:26;3.40;;;2.30;;
11283;SDS011;5698;47.332;11.180;2023-07-22T08:56:54;2.20;;;2.00;;
11283;SDS011;5698;47.332;11.180;2023-07-22T08:59:21;3.80;;;2.67;;
11283;SDS011;5698;47.332;11.180;2023-07-22T09:01:50;3.27;;;2.97;;
11283;SDS011;5698;47.332;11.180;2023-07-22T09:04:18;2.73;;;2.40;;
11283;SDS011;5698;47.332;11.180;2023-07-22T09:06:47;3.37;;;2.40;;
11283;SDS011;5698;47.332;11.180;2023-07-22T09:09:14;2.43;;;2.23;;
11283;SDS011;5698;47.332;11.180;2023-07-22T09:11:41;2.60;;;2.37;;
11283;SDS011;5698;47.332;11.180;2023-07-22T09:14:08;2.40;;;2.20;;
11283;SDS011;5698;47.332;11.180;2023-07-22T09:16:36;3.20;;;2.40;;
11283;SDS011;5698;47.332;11.180;2023-07-22T09:19:04;2.50;;;2.30;;
11283;SDS011;5698;47.332;11.180;2023-07-22T09:21:31;2.80;;;2.60;;
11283;SDS011;5698;47.332;11.180;2023-07-22T09:24:02;2.70;;;2.33;;
11283;SDS011;5698;47.332;11.180;2023-07-22T09:26:48;3.43;;;2.30;;
11283;SDS011;5698;47.332;11.180;2023-07-22T09:29:15;3.00;;;2.70;;
11283;SDS011;5698;47.332;11.180;2023-07-22T09:31:52;2.77;;;2.57;;
11283;SDS011;5698;47.332;11.180;2023-07-22T09:34:20;3.03;;;2.73;;
11283;SDS011;5698;47.332;11.180;2023-07-22T09:36:51;3.10;;;2.60;;
11283;SDS011;5698;47.332;11.180;2023-07-22T09:39:20;2.67;;;2.40;;
11283;SDS011;5698;47.332;11.180;2023-07-22T09:41:47;3.33;;;2.80;;
11283;SDS011;5698;47.332;11.180;2023-07-22T09:44:14;2.43;;;2.23;;
11283;SDS011;5698;47.332;11.180;2023-07-22T09:46:42;3.73;;;2.37;;
11283;SDS011;5698;47.332;11.180;2023-07-22T09:49:15;2.80;;;2.50;;
11283;SDS011;5698;47.332;11.180;2023-07-22T09:51:43;2.83;;;2.57;;
11283;SDS011;5698;47.332;11.180;2023-07-22T09:54:10;2.77;;;2.13;;
11283;SDS011;5698;47.332;11.180;2023-07-22T09:56:45;2.43;;;2.23;;
11283;SDS011;5698;47.332;11.180;2023-07-22T09:59:14;2.00;;;1.80;;
11283;SDS011;5698;47.332;11.180;2023-07-22T10:01:45;2.93;;;2.10;;
11283;SDS011;5698;47.332;11.180;2023-07-22T10:04:15;2.50;;;2.30;;
11283;SDS011;5698;47.332;11.180;2023-07-22T10:06:43;2.57;;;2.30;;
11283;SDS011;5698;47.332;11.180;2023-07-22T10:09:11;5.53;;;2.30;;
11283;SDS011;5698;47.332;11.180;2023-07-22T10:11:38;2.53;;;2.33;;
11283;SDS011;5698;47.332;11.180;2023-07-22T10:14:07;3.10;;;2.00;;
11283;SDS011;5698;47.332;11.180;2023-07-22T10:16:35;2.57;;;2.37;;
11283;SDS011;5698;47.332;11.180;2023-07-22T10:19:03;2.10;;;1.90;;
11283;SDS011;5698;47.332;11.180;2023-07-22T10:21:31;2.37;;;2.17;;
11283;SDS011;5698;47.332;11.180;2023-07-22T10:24:01;2.37;;;2.00;;
11283;SDS011;5698;47.332;11.180;2023-07-22T10:26:29;2.50;;;2.27;;
11283;SDS011;5698;47.332;11.180;2023-07-22T10:28:56;2.17;;;1.93;;
11283;SDS011;5698;47.332;11.180;2023-07-22T10:31:26;2.13;;;1.97;;
11283;SDS011;5698;47.332;11.180;2023-07-22T10:33:57;2.20;;;2.00;;
11283;SDS011;5698;47.332;11.180;2023-07-22T10:36:24;2.20;;;2.00;;
11283;SDS011;5698;47.332;11.180;2023-07-22T10:38:56;3.27;;;2.10;;
11283;SDS011;5698;47.332;11.180;2023-07-22T10:41:23;3.60;;;2.50;;
11283;SDS011;5698;47.332;11.180;2023-07-22T10:43:54;3.03;;;1.93;;
11283;SDS011;5698;47.332;11.180;2023-07-22T10:46:32;2.30;;;2.07;;
11283;SDS011;5698;47.332;11.180;2023-07-22T10:49:09;2.50;;;2.30;;
11283;SDS011;5698;47.332;11.180;2023-07-22T10:51:37;3.67;;;2.30;;
11283;SDS011;5698;47.332;11.180;2023-07-22T10:54:10;3.37;;;2.30;;
11283;SDS011;5698;47.332;11.180;2023-07-22T10:56:37;2.30;;;2.10;;
11283;SDS011;5698;47.332;11.180;2023-07-22T10:59:07;2.80;;;2.50;;
11283;SDS011;5698;47.332;11.180;2023-07-22T11:01:38;3.03;;;2.73;;
11283;SDS011;5698;47.332;11.180;2023-07-22T11:04:06;2.80;;;2.30;;
11283;SDS011;5698;47.332;11.180;2023-07-22T11:06:35;2.00;;;1.90;;
11283;SDS011;5698;47.332;11.180;2023-07-22T11:09:03;2.17;;;1.93;;
11283;SDS011;5698;47.332;11.180;2023-07-22T11:11:37;2.50;;;2.10;;
11283;SDS011;5698;47.332;11.180;2023-07-22T11:14:12;2.77;;;2.30;;
11283;SDS011;5698;47.332;11.180;2023-07-22T11:16:41;2.50;;;2.23;;
11283;SDS011;5698;47.332;11.180;2023-07-22T11:19:09;2.93;;;2.23;;
11283;SDS011;5698;47.332;11.180;2023-07-22T11:21:36;2.70;;;2.50;;
11283;SDS011;5698;47.332;11.180;2023-07-22T11:24:03;3.00;;;2.30;;
11283;SDS011;5698;47.332;11.180;2023-07-22T11:26:30;3.43;;;2.40;;
11283;SDS011;5698;47.332;11.180;2023-07-22T11:28:58;2.57;;;2.37;;
11283;SDS011;5698;47.332;11.180;2023-07-22T11:31:30;2.97;;;2.23;;
11283;SDS011;5698;47.332;11.180;2023-07-22T11:33:59;2.07;;;1.87;;
11283;SDS011;5698;47.332;11.180;2023-07-22T11:36:26;4.27;;;2.23;;
11283;SDS011;5698;47.332;11.180;2023-07-22T11:38:53;2.77;;;2.20;;
11283;SDS011;5698;47.332;11.180;2023-07-22T11:41:20;2.90;;;2.53;;
11283;SDS011;5698;47.332;11.180;2023-07-22T11:43:47;2.70;;;2.50;;
11283;SDS011;5698;47.332;11.180;2023-07-22T11:46:15;2.77;;;2.40;;
11283;SDS011;5698;47.332;11.180;2023-07-22T11:48:48;2.80;;;2.50;;
11283;SDS011;5698;47.332;11.180;2023-07-22T11:51:18;2.80;;;2.40;;
11283;SDS011;5698;47.332;11.180;2023-07-22T11:53:47;2.50;;;2.30;;
11283;SDS011;5698;47.332;11.180;2023-07-22T11:56:18;3.23;;;2.30;;
11283;SDS011;5698;47.332;11.180;2023-07-22T11:58:50;2.80;;;2.20;;
11283;SDS011;5698;47.332;11.180;2023-07-22T12:01:17;2.90;;;2.60;;
11283;SDS011;5698;47.332;11.180;2023-07-22T12:03:45;2.47;;;2.27;;
11283;SDS011;5698;47.332;11.180;2023-07-22T12:06:12;2.73;;;2.53;;
11283;SDS011;5698;47.332;11.180;2023-07-22T12:08:44;3.00;;;2.70;;
11283;SDS011;5698;47.332;11.180;2023-07-22T12:11:15;2.40;;;2.17;;
11283;SDS011;5698;47.332;11.180;2023-07-22T12:13:43;2.37;;;2.17;;
11283;SDS011;5698;47.332;11.180;2023-07-22T12:16:11;2.43;;;2.23;;
11283;SDS011;5698;47.332;11.180;2023-07-22T12:18:42;2.70;;;2.40;;
11283;SDS011;5698;47.332;11.180;2023-07-22T12:21:10;2.47;;;2.27;;
11283;SDS011;5698;47.332;11.180;2023-07-22T12:23:37;2.50;;;2.30;;
11283;SDS011;5698;47.332;11.180;2023-07-22T12:26:06;3.23;;;2.20;;
11283;SDS011;5698;47.332;11.180;2023-07-22T12:28:33;2.80;;;2.50;;
11283;SDS011;5698;47.332;11.180;2023-07-22T12:31:01;4.07;;;2.40;;
11283;SDS011;5698;47.332;11.180;2023-07-22T12:33:28;2.90;;;2.40;;
11283;SDS011;5698;47.332;11.180;2023-07-22T12:35:55;2.47;;;2.27;;
11283;SDS011;5698;47.332;11.180;2023-07-22T12:38:23;4.63;;;2.57;;
11283;SDS011;5698;47.332;11.180;2023-07-22T12:40:49;3.07;;;2.37;;
11283;SDS011;5698;47.332;11.180;2023-07-22T12:43:18;2.63;;;2.30;;
11283;SDS011;5698;47.332;11.180;2023-07-22T12:45:45;3.13;;;2.67;;
11283;SDS011;5698;47.332;11.180;2023-07-22T12:48:12;4.50;;;2.30;;
11283;SDS011;5698;47.332;11.180;2023-07-22T12:50:39;2.73;;;2.53;;
11283;SDS011;5698;47.332;11.180;2023-07-22T12:53:06;3.07;;;2.50;;
11283;SDS011;5698;47.332;11.180;2023-07-22T12:55:33;3.37;;;3.00;;
11283;SDS011;5698;47.332;11.180;2023-07-22T12:58:00;2.60;;;2.20;;
11283;SDS011;5698;47.332;11.180;2023-07-22T13:00:28;2.80;;;2.50;;
11283;SDS011;5698;47.332;11.180;2023-07-22T13:02:55;2.33;;;2.13;;
11283;SDS011;5698;47.332;11.180;2023-07-22T13:05:23;3.97;;;2.60;;
11283;SDS011;5698;47.332;11.180;2023-07-22T13:07:50;2.50;;;2.30;;
11283;SDS011;5698;47.332;11.180;2023-07-22T13:10:18;2.77;;;2.50;;
11283;SDS011;5698;47.332;11.180;2023-07-22T13:12:47;4.67;;;2.90;;
11283;SDS011;5698;47.332;11.180;2023-07-22T13:15:14;2.97;;;2.73;;
11283;SDS011;5698;47.332;11.180;2023-07-22T13:17:42;4.13;;;2.97;;
11283;SDS011;5698;47.332;11.180;2023-07-22T13:20:09;3.37;;;3.00;;
11283;SDS011;5698;47.332;11.180;2023-07-22T13:22:37;3.20;;;2.87;;
11283;SDS011;5698;47.332;11.180;2023-07-22T13:25:04;3.43;;;2.87;;
11283;SDS011;5698;47.332;11.180;2023-07-22T13:27:31;3.07;;;2.83;;
11283;SDS011;5698;47.332;11.180;2023-07-22T13:29:59;3.53;;;2.90;;
11283;SDS011;5698;47.332;11.180;2023-07-22T13:32:26;3.23;;;2.93;;
11283;SDS011;5698;47.332;11.180;2023-07-22T13:34:55;3.00;;;2.70;;
11283;SDS011;5698;47.332;11.180;2023-07-22T13:37:22;3.27;;;2.60;;
11283;SDS011;5698;47.332;11.180;2023-07-22T13:39:48;3.47;;;3.00;;
11283;SDS011;5698;47.332;11.180;2023-07-22T13:42:15;2.63;;;2.20;;
11283;SDS011;5698;47.332;11.180;2023-07-22T13:44:42;2.77;;;2.30;;
11283;SDS011;5698;47.332;11.180;2023-07-22T13:47:09;3.03;;;2.73;;
11283;SDS011;5698;47.332;11.180;2023-07-22T13:49:36;4.03;;;2.70;;
11283;SDS011;5698;47.332;11.180;2023-07-22T13:52:05;2.87;;;2.53;;
11283;SDS011;5698;47.332;11.180;2023-07-22T13:54:32;3.97;;;2.77;;
11283;SDS011;5698;47.332;11.180;2023-07-22T13:56:59;2.50;;;2.30;;
11283;SDS011;5698;47.332;11.180;2023-07-22T13:59:26;4.30;;;2.60;;
11283;SDS011;5698;47.332;11.180;2023-07-22T14:01:53;4.13;;;3.00;;
11283;SDS011;5698;47.332;11.180;2023-07-22T14:04:19;3.53;;;2.70;;
11283;SDS011;5698;47.332;11.180;2023-07-22T14:06:46;3.83;;;2.97;;
11283;SDS011;5698;47.332;11.180;2023-07-22T14:09:15;5.33;;;2.20;;
11283;SDS011;5698;47.332;11.180;2023-07-22T14:11:42;2.77;;;2.57;;
11283;SDS011;5698;47.332;11.180;2023-07-22T14:14:09;2.67;;;2.43;;
11283;SDS011;5698;47.332;11.180;2023-07-22T14:16:36;2.63;;;2.40;;
11283;SDS011;5698;47.332;11.180;2023-07-22T14:19:03;3.27;;;2.63;;
11283;SDS011;5698;47.332;11.180;2023-07-22T14:21:30;3.93;;;2.87;;
11283;SDS011;5698;47.332;11.180;2023-07-22T14:23:57;3.03;;;2.73;;
11283;SDS011;5698;47.332;11.180;2023-07-22T14:26:25;2.60;;;2.40;;
11283;SDS011;5698;47.332;11.180;2023-07-22T14:28:52;2.60;;;2.40;;
11283;SDS011;5698;47.332;11.180;2023-07-22T14:31:19;2.60;;;2.40;;
11283;SDS011;5698;47.332;11.180;2023-07-22T14:33:46;4.10;;;2.60;;
11283;SDS011;5698;47.332;11.180;2023-07-22T14:36:13;3.83;;;2.73;;
11283;SDS011;5698;47.332;11.180;2023-07-22T14:38:40;2.60;;;2.40;;
11283;SDS011;5698;47.332;11.180;2023-07-22T14:41:07;3.50;;;3.00;;
11283;SDS011;5698;47.332;11.180;2023-07-22T14:43:37;3.57;;;2.83;;
11283;SDS011;5698;47.332;11.180;2023-07-22T14:46:04;3.30;;;2.60;;
11283;SDS011;5698;47.332;11.180;2023-07-22T14:48:31;3.83;;;2.70;;
11283;SDS011;5698;47.332;11.180;2023-07-22T14:50:58;3.07;;;2.77;;
11283;SDS011;5698;47.332;11.180;2023-07-22T14:53:25;4.93;;;2.57;;